Time;durP1;ratioP1;P1;durP2;ratioP2;P2;SDS_P1;SDS_P2;PMS_P1;PMS_P2;Temp;Humidity;BMP_temperature;BMP_pressure;BME280_temperature;BME280_humidity;BME280_pressure;Samples;Min_cycle;Max_cycle;Signal;HPM_P1;HPM_P2
2021/12/04 00:02:02;;;;;;;5.45;3.00;;;;;;;;;;5020332;28;20057;-68
2021/12/04 00:04:32;;;;;;;4.18;2.30;;;;;;;;;;5022533;28;20059;-68
2021/12/04 00:06:59;;;;;;;6.05;2.47;;;;;;;;;;5020026;28;20054;-69
2021/12/04 00:09:26;;;;;;;6.22;2.42;;;;;;;;;;5019376;28;20077;-68
2021/12/04 00:11:55;;;;;;;2.88;1.73;;;;;;;;;;5019716;28;20887;-68
2021/12/04 00:14:21;;;;;;;3.83;1.73;;;;;;;;;;5020996;28;20474;-69
2021/12/04 00:16:48;;;;;;;5.40;2.25;;;;;;;;;;5022926;28;20120;-68
2021/12/04 00:19:15;;;;;;;4.40;2.17;;;;;;;;;;5022595;28;20077;-65
2021/12/04 00:21:43;;;;;;;5.07;2.40;;;;;;;;;;5021485;28;20143;-68
2021/12/04 00:24:09;;;;;;;5.00;1.55;;;;;;;;;;5024071;28;20132;-68
2021/12/04 00:26:36;;;;;;;4.65;1.83;;;;;;;;;;5021756;28;20072;-68
2021/12/04 00:29:03;;;;;;;4.05;1.85;;;;;;;;;;5019899;28;20542;-68
2021/12/04 00:31:30;;;;;;;4.28;2.03;;;;;;;;;;5023398;28;20092;-68
2021/12/04 00:33:57;;;;;;;4.57;1.80;;;;;;;;;;5025347;28;20103;-68
2021/12/04 00:36:31;;;;;;;4.10;1.77;;;;;;;;;;5025049;28;20567;-69
2021/12/04 00:49:55;;;;;;;4.35;1.42;;;;;;;;;;5024866;28;20064;-68
2021/12/04 00:52:22;;;;;;;2.08;1.42;;;;;;;;;;5026780;28;20443;-68
2021/12/04 00:54:50;;;;;;;4.97;2.00;;;;;;;;;;5027857;28;20093;-68
2021/12/04 00:57:16;;;;;;;4.07;1.83;;;;;;;;;;5027125;28;20053;-67
2021/12/04 00:59:43;;;;;;;4.25;1.83;;;;;;;;;;5025095;28;21049;-68
2021/12/04 01:02:10;;;;;;;3.22;1.52;;;;;;;;;;5022338;28;20660;-68
2021/12/04 01:04:36;;;;;;;3.35;1.55;;;;;;;;;;5021764;28;20151;-68
2021/12/04 01:07:03;;;;;;;3.22;1.45;;;;;;;;;;5023957;28;20135;-68
2021/12/04 01:09:30;;;;;;;3.85;1.75;;;;;;;;;;5022373;28;20053;-68
2021/12/04 01:11:58;;;;;;;2.60;1.33;;;;;;;;;;5022224;28;20127;-68
2021/12/04 01:14:27;;;;;;;3.80;1.42;;;;;;;;;;5023972;28;20171;-68
2021/12/04 01:16:54;;;;;;;3.55;1.45;;;;;;;;;;5023453;28;20123;-68
2021/12/04 01:19:21;;;;;;;3.30;1.50;;;;;;;;;;5021407;28;20173;-68
2021/12/04 01:21:48;;;;;;;2.80;1.25;;;;;;;;;;5023109;28;20134;-68
2021/12/04 01:24:15;;;;;;;3.90;1.48;;;;;;;;;;5023920;28;20053;-68
2021/12/04 01:26:41;;;;;;;2.22;1.30;;;;;;;;;;5023008;28;20100;-68
2021/12/04 01:29:09;;;;;;;3.58;1.40;;;;;;;;;;5021736;28;20139;-67
2021/12/04 01:31:36;;;;;;;1.83;1.10;;;;;;;;;;5022453;28;20135;-68
2021/12/04 01:34:02;;;;;;;3.63;1.92;;;;;;;;;;5022370;28;20108;-68
2021/12/04 01:36:30;;;;;;;2.72;1.20;;;;;;;;;;5023717;28;20151;-68
2021/12/04 01:38:57;;;;;;;3.33;1.17;;;;;;;;;;5022823;28;20046;-68
2021/12/04 01:41:24;;;;;;;4.43;1.23;;;;;;;;;;5019828;28;20138;-68
2021/12/04 01:43:50;;;;;;;3.45;1.70;;;;;;;;;;5021814;28;20069;-68
2021/12/04 01:46:18;;;;;;;3.83;1.58;;;;;;;;;;5023525;28;20076;-66
2021/12/04 01:48:45;;;;;;;4.25;1.20;;;;;;;;;;5022571;28;20138;-68
2021/12/04 01:51:12;;;;;;;2.85;1.50;;;;;;;;;;5022122;28;20127;-68
2021/12/04 01:53:38;;;;;;;5.93;1.70;;;;;;;;;;5020375;28;20509;-68
2021/12/04 01:56:05;;;;;;;8.10;1.90;;;;;;;;;;5021914;28;20471;-68
2021/12/04 01:58:32;;;;;;;3.03;1.30;;;;;;;;;;5021541;28;20077;-68
2021/12/04 02:00:58;;;;;;;3.60;1.50;;;;;;;;;;5021097;28;20084;-68
2021/12/04 02:03:26;;;;;;;2.70;1.17;;;;;;;;;;5025185;28;20081;-68
2021/12/04 02:05:53;;;;;;;3.25;1.40;;;;;;;;;;5027603;28;20049;-68
2021/12/04 02:08:22;;;;;;;3.08;1.40;;;;;;;;;;5024838;28;20138;-67
2021/12/04 02:10:51;;;;;;;2.90;1.30;;;;;;;;;;5024778;28;20076;-68
2021/12/04 02:13:18;;;;;;;3.70;1.45;;;;;;;;;;5022589;28;20045;-67
2021/12/04 02:15:46;;;;;;;4.50;1.60;;;;;;;;;;5023753;28;20092;-68
2021/12/04 02:18:13;;;;;;;2.88;1.45;;;;;;;;;;5025647;28;20084;-68
2021/12/04 02:20:42;;;;;;;3.85;1.58;;;;;;;;;;5020517;28;20089;-67
2021/12/04 02:23:10;;;;;;;2.65;1.10;;;;;;;;;;5024641;28;20076;-67
2021/12/04 02:25:37;;;;;;;1.70;0.90;;;;;;;;;;5024020;28;20487;-68
2021/12/04 02:28:05;;;;;;;3.97;1.30;;;;;;;;;;5021230;28;20136;-68
2021/12/04 02:30:36;;;;;;;2.95;1.45;;;;;;;;;;5019746;28;20491;-68
2021/12/04 02:33:11;;;;;;;1.80;0.95;;;;;;;;;;5021846;28;20091;-68
2021/12/04 02:35:38;;;;;;;4.97;1.40;;;;;;;;;;5021384;28;20498;-67
2021/12/04 02:38:06;;;;;;;1.63;1.00;;;;;;;;;;5021798;28;20572;-67
2021/12/04 02:40:32;;;;;;;2.95;1.35;;;;;;;;;;5019422;28;20077;-68
2021/12/04 02:42:59;;;;;;;4.25;1.20;;;;;;;;;;5024917;28;21958;-68
2021/12/04 02:45:25;;;;;;;1.92;1.13;;;;;;;;;;5025535;28;20053;-68
2021/12/04 02:47:52;;;;;;;3.05;1.63;;;;;;;;;;5026286;28;20089;-67
2021/12/04 02:50:18;;;;;;;2.30;1.17;;;;;;;;;;5023046;28;20052;-67
2021/12/04 02:52:46;;;;;;;2.38;1.25;;;;;;;;;;5023114;28;20088;-68
2021/12/04 02:55:16;;;;;;;3.10;0.90;;;;;;;;;;5026460;28;20103;-68
2021/12/04 02:57:44;;;;;;;2.55;1.08;;;;;;;;;;5024260;28;20049;-68
2021/12/04 03:00:15;;;;;;;2.55;1.30;;;;;;;;;;5025663;28;20061;-68
2021/12/04 03:02:41;;;;;;;1.63;0.98;;;;;;;;;;5024772;28;20517;-67
2021/12/04 03:05:10;;;;;;;1.83;1.10;;;;;;;;;;5024759;28;20124;-68
2021/12/04 03:07:37;;;;;;;1.88;0.95;;;;;;;;;;5027795;28;20076;-68
2021/12/04 03:10:06;;;;;;;2.85;1.30;;;;;;;;;;5024838;28;20104;-67
2021/12/04 03:12:34;;;;;;;2.25;1.05;;;;;;;;;;5026877;28;20065;-67
2021/12/04 03:15:01;;;;;;;2.15;1.00;;;;;;;;;;5029276;28;20473;-67
2021/12/04 03:17:28;;;;;;;2.58;1.63;;;;;;;;;;5024159;28;20565;-67
2021/12/04 03:19:54;;;;;;;2.72;1.20;;;;;;;;;;5028127;28;20590;-65
2021/12/04 03:22:22;;;;;;;2.22;1.13;;;;;;;;;;5029794;28;20112;-67
2021/12/04 03:24:49;;;;;;;1.90;0.77;;;;;;;;;;5028472;28;20091;-67
2021/12/04 03:27:17;;;;;;;2.63;1.05;;;;;;;;;;5029756;28;20514;-68
2021/12/04 03:29:48;;;;;;;2.35;1.00;;;;;;;;;;5023206;28;20648;-67
2021/12/04 03:32:35;;;;;;;2.30;1.05;;;;;;;;;;5023086;28;20134;-68
2021/12/04 03:35:26;;;;;;;1.95;0.90;;;;;;;;;;5024355;28;20136;-67
2021/12/04 03:40:53;;;;;;;3.28;1.00;;;;;;;;;;5025108;28;20196;-68
2021/12/04 03:43:20;;;;;;;2.20;0.75;;;;;;;;;;5023432;28;20073;-68
2021/12/04 03:45:53;;;;;;;1.92;0.88;;;;;;;;;;5024448;28;21036;-68
2021/12/04 03:48:49;;;;;;;1.65;0.88;;;;;;;;;;5024582;28;20516;-68
2021/12/04 03:51:16;;;;;;;2.13;0.60;;;;;;;;;;5022256;28;20076;-66
2021/12/04 03:53:42;;;;;;;3.03;0.90;;;;;;;;;;5024352;28;20057;-67
2021/12/04 03:56:10;;;;;;;1.95;0.90;;;;;;;;;;5024945;28;20083;-68
2021/12/04 03:58:37;;;;;;;4.03;0.80;;;;;;;;;;5021904;28;20049;-68
2021/12/04 04:01:05;;;;;;;2.63;0.85;;;;;;;;;;5023319;28;20045;-68
2021/12/04 04:03:32;;;;;;;1.77;0.85;;;;;;;;;;5022570;28;20136;-65
2021/12/04 04:05:58;;;;;;;0.95;0.65;;;;;;;;;;5024465;28;20064;-65
2021/12/04 04:08:25;;;;;;;1.77;0.80;;;;;;;;;;5024507;28;20159;-67
2021/12/04 04:10:53;;;;;;;1.70;0.90;;;;;;;;;;5024455;28;20103;-68
2021/12/04 04:13:20;;;;;;;1.42;0.85;;;;;;;;;;5023967;28;20066;-67
2021/12/04 04:15:47;;;;;;;3.20;0.93;;;;;;;;;;5023684;28;20142;-67
2021/12/04 04:18:15;;;;;;;3.13;1.00;;;;;;;;;;5022734;28;20049;-67
2021/12/04 04:20:42;;;;;;;3.00;1.00;;;;;;;;;;5021610;28;20122;-67
2021/12/04 04:23:08;;;;;;;1.98;0.57;;;;;;;;;;5024404;28;20140;-67
2021/12/04 04:25:35;;;;;;;1.55;0.90;;;;;;;;;;5022889;28;20131;-67
2021/12/04 04:28:02;;;;;;;1.65;0.55;;;;;;;;;;5027637;28;20060;-67
2021/12/04 04:30:28;;;;;;;2.20;0.77;;;;;;;;;;5026260;28;20077;-67
2021/12/04 04:32:55;;;;;;;1.27;0.82;;;;;;;;;;5025997;28;20054;-67
2021/12/04 04:35:26;;;;;;;6.70;0.90;;;;;;;;;;5029099;28;20057;-67
2021/12/04 04:38:00;;;;;;;1.25;0.70;;;;;;;;;;5029207;28;20427;-67
2021/12/04 04:59:49;;;;;;;1.77;0.98;;;;;;;;;;5022242;28;20151;-66
2021/12/04 05:02:32;;;;;;;1.90;0.80;;;;;;;;;;5022626;28;20053;-66
2021/12/04 05:10:51;;;;;;;4.38;0.90;;;;;;;;;;5021644;28;20085;-66
2021/12/04 05:13:20;;;;;;;1.38;0.73;;;;;;;;;;5022708;28;20057;-66
2021/12/04 05:15:57;;;;;;;1.35;0.55;;;;;;;;;;5021952;28;20046;-66
2021/12/04 05:18:33;;;;;;;1.85;0.70;;;;;;;;;;5021781;28;20119;-67
2021/12/04 05:21:05;;;;;;;2.97;0.60;;;;;;;;;;5020946;28;21425;-66
2021/12/04 05:23:34;;;;;;;4.07;1.05;;;;;;;;;;5022010;28;20458;-66
2021/12/04 05:26:01;;;;;;;1.13;0.70;;;;;;;;;;5022453;28;20080;-66
2021/12/04 05:28:27;;;;;;;1.98;1.00;;;;;;;;;;5022281;28;20073;-67
2021/12/04 05:30:54;;;;;;;1.52;1.02;;;;;;;;;;5020755;28;20053;-66
2021/12/04 05:33:21;;;;;;;2.28;1.17;;;;;;;;;;5021945;28;20773;-66
2021/12/04 05:35:48;;;;;;;2.15;0.82;;;;;;;;;;5021845;28;20600;-65
2021/12/04 05:38:15;;;;;;;1.52;0.60;;;;;;;;;;5021872;28;20873;-66
2021/12/04 05:40:43;;;;;;;2.47;0.82;;;;;;;;;;5020735;28;20049;-66
2021/12/04 05:43:10;;;;;;;1.40;0.90;;;;;;;;;;5021053;28;20647;-66
2021/12/04 05:45:41;;;;;;;6.20;1.50;;;;;;;;;;5021247;28;20115;-66
2021/12/04 05:48:10;;;;;;;3.38;1.05;;;;;;;;;;5026960;28;20096;-63
2021/12/04 05:50:55;;;;;;;2.55;0.75;;;;;;;;;;5025949;28;20587;-65
2021/12/04 05:53:24;;;;;;;1.20;0.77;;;;;;;;;;5027049;28;20042;-65
2021/12/04 05:55:53;;;;;;;4.57;1.60;;;;;;;;;;5026199;28;20055;-65
2021/12/04 05:58:22;;;;;;;2.75;1.35;;;;;;;;;;5024382;28;20056;-65
2021/12/04 06:00:48;;;;;;;4.13;2.20;;;;;;;;;;5021189;28;20053;-65
2021/12/04 06:03:15;;;;;;;2.60;1.50;;;;;;;;;;5021405;28;20049;-65
2021/12/04 06:05:42;;;;;;;3.28;1.20;;;;;;;;;;5020279;28;20053;-65
2021/12/04 06:08:09;;;;;;;2.15;0.90;;;;;;;;;;5020844;28;20140;-66
2021/12/04 06:10:36;;;;;;;3.92;1.50;;;;;;;;;;5020286;28;20073;-65
2021/12/04 06:13:04;;;;;;;2.45;0.90;;;;;;;;;;5021107;28;20659;-66
2021/12/04 06:15:30;;;;;;;3.20;0.88;;;;;;;;;;5022395;28;20139;-66
2021/12/04 06:17:57;;;;;;;1.92;0.93;;;;;;;;;;5022403;28;20535;-63
2021/12/04 06:23:08;;;;;;;1.67;0.65;;;;;;;;;;5019433;28;20069;-65
2021/12/04 06:25:35;;;;;;;2.13;0.70;;;;;;;;;;5021094;28;20527;-62
2021/12/04 06:28:03;;;;;;;1.92;0.80;;;;;;;;;;5020491;28;20126;-63
2021/12/04 06:30:35;;;;;;;1.63;0.85;;;;;;;;;;5020667;28;20136;-65
2021/12/04 06:33:02;;;;;;;1.35;0.60;;;;;;;;;;5021849;28;20060;-65
2021/12/04 06:35:28;;;;;;;2.70;0.73;;;;;;;;;;5020981;28;20093;-65
2021/12/04 06:37:55;;;;;;;1.15;0.60;;;;;;;;;;5021340;28;20124;-65
2021/12/04 06:40:25;;;;;;;2.83;1.30;;;;;;;;;;5026410;28;20069;-66
2021/12/04 06:42:52;;;;;;;1.88;0.70;;;;;;;;;;5024694;28;20053;-65
2021/12/04 06:45:20;;;;;;;1.70;0.77;;;;;;;;;;5020603;28;20141;-64
2021/12/04 06:47:51;;;;;;;1.90;0.93;;;;;;;;;;5022561;28;20053;-65
2021/12/04 06:50:25;;;;;;;20.88;3.38;;;;;;;;;;5019691;28;20056;-65
2021/12/04 06:52:51;;;;;;;3.50;1.20;;;;;;;;;;5023073;28;20709;-65
2021/12/04 06:55:22;;;;;;;1.10;0.98;;;;;;;;;;5020428;28;20049;-65
2021/12/04 06:57:48;;;;;;;1.08;0.65;;;;;;;;;;5021652;28;20054;-63
2021/12/04 07:00:15;;;;;;;1.52;0.60;;;;;;;;;;5025063;28;20054;-65
2021/12/04 07:02:43;;;;;;;1.98;0.80;;;;;;;;;;5022637;28;20053;-65
2021/12/04 07:05:10;;;;;;;1.35;0.98;;;;;;;;;;5024172;28;20077;-64
2021/12/04 07:07:37;;;;;;;3.60;0.70;;;;;;;;;;5025336;28;20460;-64
2021/12/04 07:10:05;;;;;;;3.40;0.95;;;;;;;;;;5025670;28;20492;-65
2021/12/04 07:12:31;;;;;;;1.48;0.70;;;;;;;;;;5025880;28;20500;-63
2021/12/04 07:14:58;;;;;;;25.67;3.55;;;;;;;;;;5023499;28;20389;-62
2021/12/04 07:17:24;;;;;;;5.38;1.02;;;;;;;;;;5022085;28;20718;-63
2021/12/04 07:19:52;;;;;;;1.42;0.70;;;;;;;;;;5020653;28;20150;-63
2021/12/04 07:22:19;;;;;;;3.83;1.42;;;;;;;;;;5021542;28;20127;-65
2021/12/04 07:24:45;;;;;;;3.30;0.85;;;;;;;;;;5021752;28;20136;-65
2021/12/04 07:27:13;;;;;;;4.45;1.48;;;;;;;;;;5021147;28;20073;-65
2021/12/04 07:29:39;;;;;;;2.28;1.05;;;;;;;;;;5023467;28;20057;-65
2021/12/04 07:32:06;;;;;;;3.67;1.45;;;;;;;;;;5025038;28;20131;-66
2021/12/04 07:34:33;;;;;;;7.15;1.65;;;;;;;;;;5024222;28;20077;-65
2021/12/04 07:37:02;;;;;;;1.27;0.73;;;;;;;;;;5024343;28;20077;-65
2021/12/04 07:39:29;;;;;;;4.05;0.82;;;;;;;;;;5024168;28;20679;-66
2021/12/04 07:41:55;;;;;;;2.95;1.20;;;;;;;;;;5023485;28;20123;-66
2021/12/04 07:44:22;;;;;;;2.50;1.02;;;;;;;;;;5023285;28;20241;-64
2021/12/04 07:46:49;;;;;;;3.53;1.08;;;;;;;;;;5021564;28;20683;-66
2021/12/04 07:49:15;;;;;;;1.70;0.77;;;;;;;;;;5023943;28;20769;-66
2021/12/04 07:51:43;;;;;;;0.73;0.57;;;;;;;;;;5024294;28;20459;-66
2021/12/04 07:54:12;;;;;;;1.70;0.90;;;;;;;;;;5024643;28;20049;-66
2021/12/04 07:56:39;;;;;;;2.55;0.77;;;;;;;;;;5021044;28;20072;-66
2021/12/04 07:59:05;;;;;;;1.80;1.00;;;;;;;;;;5022528;28;20130;-66
2021/12/04 08:01:32;;;;;;;3.75;0.90;;;;;;;;;;5025927;28;20081;-66
2021/12/04 08:03:58;;;;;;;1.85;0.80;;;;;;;;;;5025141;28;20124;-66
2021/12/04 08:06:25;;;;;;;1.65;0.82;;;;;;;;;;5023932;28;20053;-67
2021/12/04 08:08:58;;;;;;;3.92;1.60;;;;;;;;;;5027549;28;20099;-67
2021/12/04 08:11:26;;;;;;;5.35;1.67;;;;;;;;;;5027935;28;20053;-66
2021/12/04 08:13:53;;;;;;;2.90;1.10;;;;;;;;;;5026331;28;20549;-67
2021/12/04 08:16:24;;;;;;;3.78;1.35;;;;;;;;;;5027863;28;20103;-66
2021/12/04 08:18:51;;;;;;;2.50;1.10;;;;;;;;;;5027093;28;20132;-67
2021/12/04 08:21:17;;;;;;;2.78;1.08;;;;;;;;;;5024342;28;20065;-67
2021/12/04 08:23:44;;;;;;;4.68;1.30;;;;;;;;;;5024187;28;20085;-66
2021/12/04 08:26:11;;;;;;;2.67;1.15;;;;;;;;;;5022883;28;20088;-67
2021/12/04 08:28:39;;;;;;;3.78;1.20;;;;;;;;;;5023640;28;20136;-66
2021/12/04 08:31:05;;;;;;;2.28;0.95;;;;;;;;;;5024750;28;20053;-66
2021/12/04 08:33:32;;;;;;;2.35;1.00;;;;;;;;;;5023340;28;20076;-67
2021/12/04 08:36:00;;;;;;;1.80;0.77;;;;;;;;;;5026711;28;20080;-66
2021/12/04 08:38:27;;;;;;;2.38;1.08;;;;;;;;;;5025368;28;20140;-67
2021/12/04 08:40:53;;;;;;;2.42;1.08;;;;;;;;;;5025583;28;21393;-66
2021/12/04 08:43:20;;;;;;;2.88;0.80;;;;;;;;;;5025732;28;20492;-66
2021/12/04 08:45:49;;;;;;;2.65;0.70;;;;;;;;;;5022976;28;20135;-66
2021/12/04 08:48:16;;;;;;;1.80;0.80;;;;;;;;;;5024547;28;20085;-66
2021/12/04 08:50:43;;;;;;;0.73;0.40;;;;;;;;;;5024051;28;20053;-66
2021/12/04 08:53:10;;;;;;;2.00;0.65;;;;;;;;;;5022623;28;20472;-66
2021/12/04 08:55:39;;;;;;;2.28;0.90;;;;;;;;;;5027782;28;20522;-66
2021/12/04 08:58:08;;;;;;;4.28;2.00;;;;;;;;;;5022435;28;20092;-66
2021/12/04 09:00:39;;;;;;;1.27;0.77;;;;;;;;;;5023512;28;20073;-65
2021/12/04 09:03:09;;;;;;;3.38;0.90;;;;;;;;;;5022336;28;20091;-66
2021/12/04 09:05:37;;;;;;;1.52;0.80;;;;;;;;;;5024069;28;20053;-66
2021/12/04 09:08:04;;;;;;;3.35;1.30;;;;;;;;;;5023487;28;20049;-66
2021/12/04 09:10:31;;;;;;;1.92;0.90;;;;;;;;;;5025069;28;20081;-67
2021/12/04 09:12:57;;;;;;;2.00;1.00;;;;;;;;;;5023480;28;20085;-66
2021/12/04 09:15:26;;;;;;;2.35;1.17;;;;;;;;;;5021805;28;20512;-65
2021/12/04 09:17:53;;;;;;;2.65;1.45;;;;;;;;;;5027793;28;20088;-66
2021/12/04 09:20:21;;;;;;;1.55;0.70;;;;;;;;;;5021440;28;20959;-65
2021/12/04 09:22:48;;;;;;;1.45;0.85;;;;;;;;;;5021941;28;20117;-65
2021/12/04 09:25:20;;;;;;;2.97;0.82;;;;;;;;;;5021026;28;20668;-65
2021/12/04 09:28:00;;;;;;;1.23;0.95;;;;;;;;;;5024987;28;20045;-65
2021/12/04 09:30:52;;;;;;;3.20;1.38;;;;;;;;;;5018333;28;20478;-65
2021/12/04 10:01:14;;;;;;;6.30;2.20;;;;;;;;;;5020360;28;20083;-65
2021/12/04 10:11:08;;;;;;;0.98;0.65;;;;;;;;;;5020623;28;20049;-65
2021/12/04 10:12:26;;;;;;;1.52;0.90;;;;;;;;;;5019729;28;20123;-65
2021/12/04 10:18:04;;;;;;;1.35;0.75;;;;;;;;;;5020316;28;20057;-65
2021/12/04 10:20:40;;;;;;;2.15;1.15;;;;;;;;;;5019511;28;20084;-65
2021/12/04 10:23:23;;;;;;;1.93;0.87;;;;;;;;;;5019734;28;20713;-66
2021/12/04 10:34:12;;;;;;;1.35;0.70;;;;;;;;;;5022868;28;20068;-65
2021/12/04 10:36:40;;;;;;;1.83;1.08;;;;;;;;;;5020971;28;20158;-65
2021/12/04 10:39:09;;;;;;;1.02;0.65;;;;;;;;;;5021895;28;20057;-65
2021/12/04 10:41:40;;;;;;;1.50;0.80;;;;;;;;;;5021964;28;20139;-66
2021/12/04 10:44:15;;;;;;;2.53;0.77;;;;;;;;;;5020972;28;20054;-65
2021/12/04 10:46:54;;;;;;;2.95;0.70;;;;;;;;;;5022388;28;20061;-65
2021/12/04 10:49:35;;;;;;;1.80;0.93;;;;;;;;;;5018260;28;20061;-66
2021/12/04 10:52:04;;;;;;;1.38;0.85;;;;;;;;;;5019314;28;20521;-65
2021/12/04 10:54:38;;;;;;;1.63;0.70;;;;;;;;;;5017315;28;20144;-65
2021/12/04 10:57:35;;;;;;;3.80;1.23;;;;;;;;;;5018548;28;20049;-65
2021/12/04 11:00:06;;;;;;;0.98;0.50;;;;;;;;;;5017079;28;20042;-65
2021/12/04 11:02:37;;;;;;;1.10;0.50;;;;;;;;;;5017108;28;20049;-66
2021/12/04 11:05:24;;;;;;;0.63;0.60;;;;;;;;;;5028522;28;20076;-65
2021/12/04 11:18:35;;;;;;;3.00;0.63;;;;;;;;;;5024449;28;20046;-65
2021/12/04 11:19:26;;;;;;;1.05;0.65;;;;;;;;;;5022416;28;20065;-65
2021/12/04 11:22:12;;;;;;;1.35;0.77;;;;;;;;;;5026779;28;20415;-65
2021/12/04 11:27:35;;;;;;;1.77;0.90;;;;;;;;;;5020097;28;20458;-65
2021/12/04 11:38:39;;;;;;;0.90;0.57;;;;;;;;;;5023490;28;20060;-65
2021/12/04 11:41:22;;;;;;;1.15;0.70;;;;;;;;;;5022469;28;20053;-65
2021/12/04 11:43:55;;;;;;;1.88;0.95;;;;;;;;;;5018651;28;20064;-65
2021/12/04 11:46:30;;;;;;;2.45;0.90;;;;;;;;;;5016545;28;20141;-65
2021/12/04 11:48:59;;;;;;;1.70;0.90;;;;;;;;;;5019445;28;20431;-66
2021/12/04 11:51:27;;;;;;;1.20;0.63;;;;;;;;;;5020465;28;20068;-66
2021/12/04 11:53:56;;;;;;;2.42;1.00;;;;;;;;;;5024743;28;20053;-66
2021/12/04 11:56:25;;;;;;;2.90;1.23;;;;;;;;;;5022470;28;20562;-64
2021/12/04 11:58:53;;;;;;;2.60;1.17;;;;;;;;;;5022370;28;20561;-66
2021/12/04 12:01:30;;;;;;;1.45;0.70;;;;;;;;;;5019666;28;20123;-66
2021/12/04 12:03:59;;;;;;;1.30;0.73;;;;;;;;;;5023019;28;20050;-66
2021/12/04 12:06:37;;;;;;;2.70;0.95;;;;;;;;;;5020749;28;20076;-66
2021/12/04 12:09:08;;;;;;;1.98;0.88;;;;;;;;;;5020932;28;20049;-66
2021/12/04 12:11:35;;;;;;;0.88;0.70;;;;;;;;;;5019664;28;20054;-65
2021/12/04 12:14:06;;;;;;;1.77;0.80;;;;;;;;;;5018459;28;20053;-66
2021/12/04 12:16:37;;;;;;;1.17;0.55;;;;;;;;;;5018884;28;20053;-66
2021/12/04 12:19:08;;;;;;;1.15;0.60;;;;;;;;;;5024407;28;20064;-66
2021/12/04 12:21:48;;;;;;;1.30;0.70;;;;;;;;;;5023469;28;20061;-66
2021/12/04 12:24:33;;;;;;;1.60;0.88;;;;;;;;;;5019879;28;20057;-66
2021/12/04 12:27:16;;;;;;;1.52;0.98;;;;;;;;;;5020855;28;20555;-66
2021/12/04 12:33:00;;;;;;;1.70;0.77;;;;;;;;;;5020942;28;20215;-66
2021/12/04 12:38:16;;;;;;;;;;;;;;;;;;5021842;28;20060;-66
2021/12/04 12:40:42;;;;;;;2.60;1.08;;;;;;;;;;5022276;28;19940;-66
2021/12/04 12:43:13;;;;;;;1.95;0.85;;;;;;;;;;5024116;28;20057;-65
2021/12/04 12:45:40;;;;;;;1.42;0.80;;;;;;;;;;5025628;28;20479;-66
2021/12/04 12:48:10;;;;;;;1.40;0.60;;;;;;;;;;5030315;28;20081;-64
2021/12/04 12:50:41;;;;;;;1.25;0.60;;;;;;;;;;5026418;28;20056;-64
2021/12/04 12:53:09;;;;;;;0.70;0.57;;;;;;;;;;5028871;28;20122;-64
2021/12/04 12:55:37;;;;;;;0.82;0.68;;;;;;;;;;5027020;28;20045;-66
2021/12/04 12:58:16;;;;;;;1.98;0.55;;;;;;;;;;5026919;28;20200;-66
2021/12/04 13:11:55;;;;;;;1.10;0.60;;;;;;;;;;5026931;28;20056;-65
2021/12/04 13:14:24;;;;;;;1.02;0.50;;;;;;;;;;5027000;28;20049;-65
2021/12/04 13:16:58;;;;;;;1.20;0.60;;;;;;;;;;5029432;28;20419;-66
2021/12/04 13:19:27;;;;;;;2.00;1.00;;;;;;;;;;5029923;28;20045;-65
2021/12/04 13:21:56;;;;;;;1.65;0.80;;;;;;;;;;5029265;28;20107;-65
2021/12/04 13:24:24;;;;;;;1.13;0.75;;;;;;;;;;5026298;28;20079;-65
2021/12/04 13:26:52;;;;;;;1.63;0.73;;;;;;;;;;5024416;28;20042;-65
2021/12/04 13:29:21;;;;;;;1.85;1.15;;;;;;;;;;5027457;28;20049;-65
2021/12/04 13:31:48;;;;;;;1.13;0.70;;;;;;;;;;5024985;28;20688;-65
2021/12/04 13:34:21;;;;;;;3.80;1.10;;;;;;;;;;5031200;28;20491;-66
2021/12/04 13:36:49;;;;;;;1.60;0.80;;;;;;;;;;5027301;28;20081;-66
2021/12/04 13:39:18;;;;;;;1.15;0.80;;;;;;;;;;5029000;28;20152;-66
2021/12/04 13:41:46;;;;;;;2.58;1.10;;;;;;;;;;5030105;28;20096;-66
2021/12/04 13:44:16;;;;;;;2.30;1.23;;;;;;;;;;5028713;28;20484;-65
2021/12/04 13:46:44;;;;;;;4.15;1.30;;;;;;;;;;5027415;28;20079;-65
2021/12/04 13:49:11;;;;;;;5.50;2.50;;;;;;;;;;5028861;28;20056;-66
2021/12/04 13:51:39;;;;;;;4.35;1.73;;;;;;;;;;5028839;28;20103;-66
2021/12/04 13:54:10;;;;;;;4.95;1.70;;;;;;;;;;5031709;28;20126;-66
2021/12/04 13:56:37;;;;;;;2.20;1.00;;;;;;;;;;5025702;28;20053;-66
2021/12/04 13:59:06;;;;;;;1.60;0.90;;;;;;;;;;5028498;28;20130;-66
2021/12/04 14:01:42;;;;;;;2.88;0.95;;;;;;;;;;5028626;28;20526;-66
2021/12/04 14:04:16;;;;;;;1.73;0.80;;;;;;;;;;5028231;28;20049;-65
2021/12/04 14:06:48;;;;;;;2.42;1.40;;;;;;;;;;5028541;28;20136;-65
2021/12/04 14:09:16;;;;;;;1.58;0.70;;;;;;;;;;5026114;28;20041;-66
2021/12/04 14:11:43;;;;;;;2.78;0.60;;;;;;;;;;5026723;28;20049;-66
2021/12/04 14:14:11;;;;;;;1.35;0.60;;;;;;;;;;5024472;28;20057;-66
2021/12/04 14:16:38;;;;;;;0.63;0.50;;;;;;;;;;5023361;28;20087;-66
2021/12/04 14:19:11;;;;;;;0.60;0.40;;;;;;;;;;5023647;28;20426;-66
2021/12/04 14:21:38;;;;;;;1.23;0.50;;;;;;;;;;5024298;28;20129;-66
2021/12/04 14:24:05;;;;;;;1.38;0.55;;;;;;;;;;5026242;28;20439;-66
2021/12/04 14:26:33;;;;;;;1.20;0.50;;;;;;;;;;5023077;28;20041;-66
2021/12/04 14:29:00;;;;;;;0.80;0.50;;;;;;;;;;5023239;28;20089;-66
2021/12/04 14:31:27;;;;;;;1.10;0.57;;;;;;;;;;5025584;28;20049;-66
2021/12/04 14:33:53;;;;;;;1.63;0.98;;;;;;;;;;5022717;28;20053;-66
2021/12/04 14:36:22;;;;;;;1.80;0.75;;;;;;;;;;5023112;28;20128;-66
2021/12/04 14:38:49;;;;;;;2.63;1.63;;;;;;;;;;5025837;28;20049;-66
2021/12/04 14:41:16;;;;;;;1.52;0.77;;;;;;;;;;5030212;28;20045;-66
2021/12/04 14:43:44;;;;;;;0.85;0.50;;;;;;;;;;5030698;28;20042;-65
2021/12/04 14:46:12;;;;;;;1.70;1.00;;;;;;;;;;5029678;28;20104;-66
2021/12/04 14:48:41;;;;;;;1.08;0.65;;;;;;;;;;5031810;28;20495;-66
2021/12/04 14:51:13;;;;;;;1.13;0.57;;;;;;;;;;5029985;28;20460;-66
2021/12/04 14:53:44;;;;;;;1.15;0.65;;;;;;;;;;5026567;28;20062;-66
2021/12/04 14:56:11;;;;;;;2.53;0.93;;;;;;;;;;5030633;28;20046;-66
2021/12/04 14:58:38;;;;;;;1.48;0.80;;;;;;;;;;5032565;28;20050;-66
2021/12/04 15:01:08;;;;;;;1.83;0.90;;;;;;;;;;5028625;28;20081;-66
2021/12/04 15:03:38;;;;;;;1.65;0.98;;;;;;;;;;5028457;28;20049;-66
2021/12/04 15:06:07;;;;;;;1.58;0.73;;;;;;;;;;5027142;28;20468;-66
2021/12/04 15:08:36;;;;;;;1.02;0.70;;;;;;;;;;5026631;28;20714;-66
2021/12/04 15:11:05;;;;;;;3.75;1.08;;;;;;;;;;5025830;28;20041;-66
2021/12/04 15:13:35;;;;;;;2.70;1.02;;;;;;;;;;5029157;28;20419;-65
2021/12/04 15:16:04;;;;;;;2.85;1.05;;;;;;;;;;5031845;28;20055;-65
2021/12/04 15:18:33;;;;;;;3.20;1.60;;;;;;;;;;5030253;28;20053;-65
2021/12/04 15:21:03;;;;;;;1.77;1.15;;;;;;;;;;5027366;28;20056;-65
2021/12/04 15:23:31;;;;;;;3.10;1.38;;;;;;;;;;5030853;28;20060;-65
2021/12/04 15:26:01;;;;;;;1.65;0.75;;;;;;;;;;5027789;28;20045;-65
2021/12/04 15:28:30;;;;;;;1.27;0.50;;;;;;;;;;5029838;28;20049;-65
2021/12/04 15:30:59;;;;;;;1.80;0.70;;;;;;;;;;5026989;28;20081;-65
2021/12/04 15:33:27;;;;;;;4.53;1.67;;;;;;;;;;5027741;28;20075;-65
2021/12/04 15:35:57;;;;;;;1.10;0.50;;;;;;;;;;5024929;28;20078;-65
2021/12/04 15:38:35;;;;;;;3.95;1.63;;;;;;;;;;5027946;28;20414;-65
2021/12/04 15:41:08;;;;;;;2.50;0.88;;;;;;;;;;5031950;28;20053;-64
2021/12/04 15:43:41;;;;;;;2.25;1.10;;;;;;;;;;5029417;28;20042;-65
2021/12/04 15:46:15;;;;;;;2.25;1.15;;;;;;;;;;5027860;28;20049;-65
2021/12/04 15:54:45;;;;;;;6.55;2.95;;;;;;;;;;5028468;28;20132;-65
2021/12/04 15:57:14;;;;;;;9.23;3.25;;;;;;;;;;5027427;28;20077;-65
2021/12/04 15:59:45;;;;;;;3.75;1.98;;;;;;;;;;5031587;28;20060;-64
2021/12/04 16:02:13;;;;;;;9.85;2.60;;;;;;;;;;5028504;28;20045;-64
2021/12/04 16:04:41;;;;;;;3.58;1.50;;;;;;;;;;5029821;28;20120;-65
2021/12/04 16:07:09;;;;;;;5.63;2.38;;;;;;;;;;5028672;28;20077;-66
2021/12/04 16:09:38;;;;;;;3.30;1.38;;;;;;;;;;5029286;28;20413;-65
2021/12/04 16:12:06;;;;;;;2.47;1.30;;;;;;;;;;5029540;28;20080;-65
2021/12/04 16:14:34;;;;;;;2.40;1.05;;;;;;;;;;5027099;28;20053;-66
2021/12/04 16:17:03;;;;;;;0.85;0.55;;;;;;;;;;5029306;28;20127;-65
2021/12/04 16:19:31;;;;;;;1.95;1.20;;;;;;;;;;5025755;28;20053;-65
2021/12/04 16:22:01;;;;;;;1.88;0.77;;;;;;;;;;5025987;28;20454;-66
2021/12/04 16:24:32;;;;;;;1.05;0.68;;;;;;;;;;5027284;28;20053;-65
2021/12/04 16:27:03;;;;;;;1.65;0.82;;;;;;;;;;5025456;28;20057;-65
2021/12/04 16:29:35;;;;;;;1.58;0.75;;;;;;;;;;5026773;28;20487;-65
2021/12/04 16:37:36;;;;;;;1.77;0.75;;;;;;;;;;5030315;28;20057;-65
2021/12/04 16:40:05;;;;;;;3.65;1.60;;;;;;;;;;5025817;28;20100;-65
2021/12/04 16:42:33;;;;;;;2.05;0.85;;;;;;;;;;5029511;28;20079;-65
2021/12/04 16:45:00;;;;;;;1.80;1.00;;;;;;;;;;5017685;28;20850;-65
2021/12/04 16:47:27;;;;;;;1.63;0.82;;;;;;;;;;5029068;28;20429;-65
2021/12/04 16:49:53;;;;;;;1.13;0.75;;;;;;;;;;5034574;28;20095;-65
2021/12/04 16:55:20;;;;;;;2.35;1.10;;;;;;;;;;5023494;28;20075;-65
2021/12/04 16:57:56;;;;;;;2.03;1.05;;;;;;;;;;5021897;28;20049;-65
2021/12/04 17:00:23;;;;;;;3.35;1.30;;;;;;;;;;5024286;28;20136;-64
2021/12/04 17:02:49;;;;;;;2.47;2.03;;;;;;;;;;5023850;28;20056;-64
2021/12/04 17:05:17;;;;;;;1.95;0.80;;;;;;;;;;5027881;28;20088;-64
2021/12/04 17:07:44;;;;;;;2.63;1.23;;;;;;;;;;5028119;28;20038;-65
2021/12/04 17:10:13;;;;;;;1.85;0.90;;;;;;;;;;5024510;28;20076;-65
2021/12/04 17:12:40;;;;;;;4.97;2.03;;;;;;;;;;5027236;28;20053;-65
2021/12/04 17:15:08;;;;;;;1.67;0.98;;;;;;;;;;5023915;28;20053;-65